Slootdorp

NL-0095 · North Holland, 荷兰

罗盘
风向 的 风向 180° Slootdorp 6/24
风: 10 kt, 3 beaufort

4 kt

9 kt
改变
0 ft 1.000 2.000 3.000 4.000 5.000
Cloud Cloud Cloud Cloud
SCT 2.200
Cloud Cloud Cloud Cloud Cloud Cloud Cloud Cloud
OVC 4.100
METAR EHKD 232301Z AUTO 18010KT 9999 SCT022 OVC041 05/03 Q0991 WHT

METAR Slootdorp - NL-0095

Slootdorp是,荷兰中的小机场。 该机场位于纬度52,83535和经度4,95056。 该机场有一条跑道: 6/24. 这个机场没有ICAO代码,我们使用NL-0095作为参考。 机场在Amsterdam FIR中。

该航空气象观测是针对De Kooy Airfield在2024年2月24日 00:01, 当地时间进行的。

机场观察

风向为180°,速度为10 kt。

可见度为10 km 或者更多。

有疏云,零星散落的云朵在2.200 ft的高度 和 乌云密布在4.100 ft的高度。 破损或更高的上限为4.100 ft。

温度为5 °C,阵风为-1 °C。 露点为3 °C,相对湿度为87%。 海平面上的气压为991 hPa (QNH)。

白天

今天,太阳从07:41升起,在18:06降落。 这适用于Slootdorp,世界夏令时可能有所不同。 当地时间与世界标准时间之间的时差为+1 小时。 当前,没有夏令时有效。

公司介绍

我们没有关于这个机场的公司信息。

体会

到Vliegles.nl去找飞行课程,跳伞和其他飞行体验。 浏览页面,了解Slootdorp附近所有可用的活动。 你也可以使用搜索功能来寻找你所在地附近的特定飞行课程、跳伞或其他飞行体验。

跑道

Id 标题 侧风 逆风 侧风 %
6/24 068°-248° 9 kt 4 kt 93 %

逆风成分最大的方向会被突出显示,并用于横风计算。 这并不一定意味着这个方向在使用。

乌云

2.200 ft SCT 疏云,零星散落的云朵
4.100 ft OVC 乌云密布

温度 & 天气

温度 5 °C
露点 3 °C
相对湿度 87%
风寒 -1 °C
Kp-index 0 (0-9)

白天

日出
07:41 (7:28)
中午
12:54
日落
18:06

小工具

你想在你的网站上有一个关于Slootdorp的当前航空天气(METAR)的小部件吗?

显示HTML代码
?>